Terminal Aerodrome Forecast
Issued by NWS Twin Cities, MN

Home | Current Version | Previous Version | Graphics & Text | Print | Product List | Glossary On
Versions: 1 2 3 4 5 6 7 8 9 10 11 12 13 14 15 16 17 18 19 20 21 22 23 24
000
FTUS43 KMPX 201100 CCA
TAFEAU
TAF COR
KEAU 201123Z 2012/2112 00000KT 1/2SM FG VV003
      TEMPO 2012/2014 4SM BR SCT004 BKN009
     FM201400 10005KT P6SM SCT009 OVC010
      TEMPO 2014/2015 SCT012 BKN035
     FM201500 10005KT P6SM SCT250
     FM210500 13007KT P6SM VCSH SCT015 BKN070
      TEMPO 2107/2110 4SM TSRA SCT008 OVC050CB
     FM211000 12009KT 3SM BR SCT003 BKN020=

USA.gov is the U.S. government's official web portal to all federal, state and local government web resources and services.